sensor_id;sensor_type;location;lat;lon;timestamp;pressure;altitude;pressure_sealevel;temperature;humidity
66887;BME280;67239;51.680;5.976;2023-03-04T00:00:07;102503.00;;;5.36;70.42
66887;BME280;67239;51.680;5.976;2023-03-04T00:02:38;102497.75;;;5.35;70.29
66887;BME280;67239;51.680;5.976;2023-03-04T00:05:05;102496.81;;;5.31;70.62
66887;BME280;67239;51.680;5.976;2023-03-04T00:07:33;102502.03;;;5.29;70.83
66887;BME280;67239;51.680;5.976;2023-03-04T00:10:00;102498.53;;;5.29;70.92
66887;BME280;67239;51.680;5.976;2023-03-04T00:12:27;102491.56;;;5.29;70.63
66887;BME280;67239;51.680;5.976;2023-03-04T00:14:53;102492.50;;;5.33;70.21
66887;BME280;67239;51.680;5.976;2023-03-04T00:17:20;102490.72;;;5.32;70.40
66887;BME280;67239;51.680;5.976;2023-03-04T00:19:47;102488.94;;;5.29;70.47
66887;BME280;67239;51.680;5.976;2023-03-04T00:22:15;102493.34;;;5.32;70.51
66887;BME280;67239;51.680;5.976;2023-03-04T00:24:42;102491.66;;;5.36;70.03
66887;BME280;67239;51.680;5.976;2023-03-04T00:27:08;102495.13;;;5.35;70.05
66887;BME280;67239;51.680;5.976;2023-03-04T00:29:35;102496.88;;;5.34;70.24
66887;BME280;67239;51.680;5.976;2023-03-04T00:32:02;102495.03;;;5.30;70.24
66887;BME280;67239;51.680;5.976;2023-03-04T00:34:30;102489.81;;;5.30;70.40
66887;BME280;67239;51.680;5.976;2023-03-04T00:36:58;102494.16;;;5.28;70.56
66887;BME280;67239;51.680;5.976;2023-03-04T00:39:27;102484.63;;;5.32;70.70
66887;BME280;67239;51.680;5.976;2023-03-04T00:41:54;102483.72;;;5.31;70.57
66887;BME280;67239;51.680;5.976;2023-03-04T00:44:21;102483.72;;;5.31;70.38
66887;BME280;67239;51.680;5.976;2023-03-04T00:46:48;102485.47;;;5.29;69.93
66887;BME280;67239;51.680;5.976;2023-03-04T00:49:15;102486.34;;;5.29;69.75
66887;BME280;67239;51.680;5.976;2023-03-04T00:51:42;102479.25;;;5.24;69.73
66887;BME280;67239;51.680;5.976;2023-03-04T00:54:09;102487.88;;;5.18;70.13
66887;BME280;67239;51.680;5.976;2023-03-04T00:56:36;102487.84;;;5.17;70.20
66887;BME280;67239;51.680;5.976;2023-03-04T00:59:03;102493.94;;;5.17;70.36
66887;BME280;67239;51.680;5.976;2023-03-04T01:01:31;102491.38;;;5.19;70.11
66887;BME280;67239;51.680;5.976;2023-03-04T01:03:58;102501.78;;;5.17;70.66
66887;BME280;67239;51.680;5.976;2023-03-04T01:06:25;102488.72;;;5.17;70.60
66887;BME280;67239;51.680;5.976;2023-03-04T01:08:52;102493.94;;;5.17;70.80
66887;BME280;67239;51.680;5.976;2023-03-04T01:11:19;102489.53;;;5.15;70.92
66887;BME280;67239;51.680;5.976;2023-03-04T01:13:46;102487.00;;;5.18;70.79
66887;BME280;67239;51.680;5.976;2023-03-04T01:16:14;102498.34;;;5.20;70.87
66887;BME280;67239;51.680;5.976;2023-03-04T01:18:41;102494.00;;;5.19;70.96
66887;BME280;67239;51.680;5.976;2023-03-04T01:21:08;102493.94;;;5.17;70.88
66887;BME280;67239;51.680;5.976;2023-03-04T01:23:35;102490.47;;;5.18;71.03
66887;BME280;67239;51.680;5.976;2023-03-04T01:26:02;102495.72;;;5.18;70.99
66887;BME280;67239;51.680;5.976;2023-03-04T01:28:33;102490.47;;;5.17;71.06
66887;BME280;67239;51.680;5.976;2023-03-04T01:31:02;102485.25;;;5.18;70.76
66887;BME280;67239;51.680;5.976;2023-03-04T01:33:30;102490.47;;;5.18;70.89
66887;BME280;67239;51.680;5.976;2023-03-04T01:35:57;102484.34;;;5.16;71.04
66887;BME280;67239;51.680;5.976;2023-03-04T01:38:24;102487.00;;;5.18;70.95
66887;BME280;67239;51.680;5.976;2023-03-04T01:40:51;102476.50;;;5.16;71.15
66887;BME280;67239;51.680;5.976;2023-03-04T01:43:22;102478.22;;;5.16;71.14
66887;BME280;67239;51.680;5.976;2023-03-04T01:45:53;102470.47;;;5.19;70.90
66887;BME280;67239;51.680;5.976;2023-03-04T01:48:25;102467.72;;;5.12;71.14
66887;BME280;67239;51.680;5.976;2023-03-04T01:50:57;102470.31;;;5.11;71.35
66887;BME280;67239;51.680;5.976;2023-03-04T01:53:30;102469.41;;;5.10;71.42
66887;BME280;67239;51.680;5.976;2023-03-04T01:56:35;102460.69;;;5.08;71.68
66887;BME280;67239;51.680;5.976;2023-03-04T01:59:23;102468.53;;;5.08;71.76
66887;BME280;67239;51.680;5.976;2023-03-04T02:01:55;102457.16;;;5.08;71.82
66887;BME280;67239;51.680;5.976;2023-03-04T02:04:29;102454.56;;;5.09;71.69
66887;BME280;67239;51.680;5.976;2023-03-04T02:07:00;102454.56;;;5.08;71.71
66887;BME280;67239;51.680;5.976;2023-03-04T02:09:29;102449.34;;;5.09;71.76
66887;BME280;67239;51.680;5.976;2023-03-04T02:11:58;102448.53;;;5.12;71.49
66887;BME280;67239;51.680;5.976;2023-03-04T02:14:27;102445.00;;;5.08;71.55
66887;BME280;67239;51.680;5.976;2023-03-04T02:16:54;102440.63;;;5.09;71.75
66887;BME280;67239;51.680;5.976;2023-03-04T02:19:28;102443.22;;;5.07;71.63
66887;BME280;67239;51.680;5.976;2023-03-04T02:22:06;102438.94;;;5.11;71.65
66887;BME280;67239;51.680;5.976;2023-03-04T02:24:57;102435.41;;;5.09;71.74
66887;BME280;67239;51.680;5.976;2023-03-04T02:27:29;102441.59;;;5.14;71.87
66887;BME280;67239;51.680;5.976;2023-03-04T02:29:56;102440.63;;;5.09;71.81
66887;BME280;67239;51.680;5.976;2023-03-04T02:32:23;102439.78;;;5.08;72.01
66887;BME280;67239;51.680;5.976;2023-03-04T02:34:50;102428.44;;;5.09;72.07
66887;BME280;67239;51.680;5.976;2023-03-04T02:37:19;102438.88;;;5.08;72.20
66887;BME280;67239;51.680;5.976;2023-03-04T02:39:50;102424.94;;;5.07;72.19
66887;BME280;67239;51.680;5.976;2023-03-04T02:42:17;102426.66;;;5.07;72.38
66887;BME280;67239;51.680;5.976;2023-03-04T02:44:46;102420.56;;;5.06;72.37
66887;BME280;67239;51.680;5.976;2023-03-04T02:47:18;102433.63;;;5.06;72.41
66887;BME280;67239;51.680;5.976;2023-03-04T02:49:46;102430.13;;;5.06;72.50
66887;BME280;67239;51.680;5.976;2023-03-04T02:52:18;102425.72;;;5.03;72.79
66887;BME280;67239;51.680;5.976;2023-03-04T02:54:47;102422.25;;;5.03;72.67
66887;BME280;67239;51.680;5.976;2023-03-04T02:57:15;102422.25;;;5.03;72.66
66887;BME280;67239;51.680;5.976;2023-03-04T02:59:46;102419.56;;;5.00;72.93
66887;BME280;67239;51.680;5.976;2023-03-04T03:02:18;102416.94;;;5.00;72.88
66887;BME280;67239;51.680;5.976;2023-03-04T03:04:45;102412.59;;;5.00;73.09
66887;BME280;67239;51.680;5.976;2023-03-04T03:07:15;102412.72;;;5.06;72.85
66887;BME280;67239;51.680;5.976;2023-03-04T03:09:42;102410.91;;;5.04;73.03
66887;BME280;67239;51.680;5.976;2023-03-04T03:12:09;102403.88;;;5.01;73.20
66887;BME280;67239;51.680;5.976;2023-03-04T03:14:36;102407.41;;;5.03;73.21
66887;BME280;67239;51.680;5.976;2023-03-04T03:17:05;102405.63;;;5.01;73.35
66887;BME280;67239;51.680;5.976;2023-03-04T03:19:32;102406.50;;;5.00;73.56
66887;BME280;67239;51.680;5.976;2023-03-04T03:22:01;102403.06;;;5.04;73.70
66887;BME280;67239;51.680;5.976;2023-03-04T03:24:28;102398.66;;;5.00;73.61
66887;BME280;67239;51.680;5.976;2023-03-04T03:26:55;102395.09;;;4.96;73.71
66887;BME280;67239;51.680;5.976;2023-03-04T03:29:23;102388.97;;;4.95;73.93
66887;BME280;67239;51.680;5.976;2023-03-04T03:31:50;102400.34;;;4.97;74.07
66887;BME280;67239;51.680;5.976;2023-03-04T03:34:19;102391.59;;;4.95;73.89
66887;BME280;67239;51.680;5.976;2023-03-04T03:36:47;102399.44;;;4.95;73.99
66887;BME280;67239;51.680;5.976;2023-03-04T03:39:14;102400.38;;;4.99;73.79
66887;BME280;67239;51.680;5.976;2023-03-04T03:41:41;102401.25;;;4.98;73.74
66887;BME280;67239;51.680;5.976;2023-03-04T03:44:08;102392.56;;;5.01;73.29
66887;BME280;67239;51.680;5.976;2023-03-04T03:46:35;102394.34;;;5.02;73.39
66887;BME280;67239;51.680;5.976;2023-03-04T03:49:02;102396.94;;;5.02;73.02
66887;BME280;67239;51.680;5.976;2023-03-04T03:51:29;102391.66;;;5.00;73.22
66887;BME280;67239;51.680;5.976;2023-03-04T03:53:56;102391.59;;;4.95;73.24
66887;BME280;67239;51.680;5.976;2023-03-04T03:56:23;102391.56;;;4.92;73.58
66887;BME280;67239;51.680;5.976;2023-03-04T03:58:50;102395.94;;;4.93;73.63
66887;BME280;67239;51.680;5.976;2023-03-04T04:01:17;102394.19;;;4.94;73.60
66887;BME280;67239;51.680;5.976;2023-03-04T04:03:43;102396.81;;;4.95;73.60
66887;BME280;67239;51.680;5.976;2023-03-04T04:06:10;102392.44;;;4.94;73.74
66887;BME280;67239;51.680;5.976;2023-03-04T04:08:37;102395.09;;;4.96;73.50
66887;BME280;67239;51.680;5.976;2023-03-04T04:11:04;102391.63;;;4.97;73.21
66887;BME280;67239;51.680;5.976;2023-03-04T04:13:31;102386.44;;;4.98;73.18
66887;BME280;67239;51.680;5.976;2023-03-04T04:15:58;102402.19;;;5.02;73.13
66887;BME280;67239;51.680;5.976;2023-03-04T04:18:25;102388.19;;;5.00;73.24
66887;BME280;67239;51.680;5.976;2023-03-04T04:20:52;102389.88;;;4.97;73.12
66887;BME280;67239;51.680;5.976;2023-03-04T04:23:20;102380.34;;;5.00;72.90
66887;BME280;67239;51.680;5.976;2023-03-04T04:25:47;102383.81;;;4.98;73.12
66887;BME280;67239;51.680;5.976;2023-03-04T04:28:14;102385.56;;;4.98;73.17
66887;BME280;67239;51.680;5.976;2023-03-04T04:30:41;102396.03;;;5.00;73.09
66887;BME280;67239;51.680;5.976;2023-03-04T04:33:09;102389.06;;;5.00;73.04
66887;BME280;67239;51.680;5.976;2023-03-04T04:35:36;102393.41;;;5.00;73.08
66887;BME280;67239;51.680;5.976;2023-03-04T04:38:07;102389.91;;;4.99;73.18
66887;BME280;67239;51.680;5.976;2023-03-04T04:40:35;102396.03;;;5.00;73.25
66887;BME280;67239;51.680;5.976;2023-03-04T04:43:03;102394.34;;;5.02;73.30
66887;BME280;67239;51.680;5.976;2023-03-04T04:45:29;102391.72;;;5.02;73.30
66887;BME280;67239;51.680;5.976;2023-03-04T04:47:56;102397.81;;;5.02;73.33
66887;BME280;67239;51.680;5.976;2023-03-04T04:50:24;102403.03;;;5.02;73.79
66887;BME280;67239;51.680;5.976;2023-03-04T04:52:51;102394.34;;;5.02;73.50
66887;BME280;67239;51.680;5.976;2023-03-04T04:55:18;102395.19;;;5.01;73.61
66887;BME280;67239;51.680;5.976;2023-03-04T04:57:45;102396.97;;;5.03;73.60
66887;BME280;67239;51.680;5.976;2023-03-04T05:00:12;102404.75;;;5.00;73.74
66887;BME280;67239;51.680;5.976;2023-03-04T05:02:40;102411.88;;;5.07;73.26
66887;BME280;67239;51.680;5.976;2023-03-04T05:05:07;102408.34;;;5.07;73.14
66887;BME280;67239;51.680;5.976;2023-03-04T05:07:34;102404.06;;;5.10;72.77
66887;BME280;67239;51.680;5.976;2023-03-04T05:10:02;102400.50;;;5.05;72.93
66887;BME280;67239;51.680;5.976;2023-03-04T05:12:30;102403.94;;;5.03;72.70
66887;BME280;67239;51.680;5.976;2023-03-04T05:14:57;102402.19;;;5.03;72.82
66887;BME280;67239;51.680;5.976;2023-03-04T05:17:24;102398.75;;;5.06;72.41
66887;BME280;67239;51.680;5.976;2023-03-04T05:19:51;102398.72;;;5.04;72.46
66887;BME280;67239;51.680;5.976;2023-03-04T05:22:18;102399.56;;;5.03;72.74
66887;BME280;67239;51.680;5.976;2023-03-04T05:24:45;102391.72;;;5.02;72.78
66887;BME280;67239;51.680;5.976;2023-03-04T05:27:12;102396.88;;;4.98;73.15
66887;BME280;67239;51.680;5.976;2023-03-04T05:29:38;102397.72;;;4.97;73.24
66887;BME280;67239;51.680;5.976;2023-03-04T05:32:05;102395.13;;;4.97;73.28
66887;BME280;67239;51.680;5.976;2023-03-04T05:34:32;102400.34;;;4.96;73.52
66887;BME280;67239;51.680;5.976;2023-03-04T05:36:59;102401.19;;;4.96;73.76
66887;BME280;67239;51.680;5.976;2023-03-04T05:39:26;102396.81;;;4.95;73.77
66887;BME280;67239;51.680;5.976;2023-03-04T05:41:57;102399.41;;;4.94;73.80
66887;BME280;67239;51.680;5.976;2023-03-04T05:44:24;102397.72;;;4.96;73.87
66887;BME280;67239;51.680;5.976;2023-03-04T05:46:51;102401.19;;;4.96;73.86
66887;BME280;67239;51.680;5.976;2023-03-04T05:49:18;102398.59;;;4.96;74.10
66887;BME280;67239;51.680;5.976;2023-03-04T05:51:45;102408.16;;;4.96;74.14
66887;BME280;67239;51.680;5.976;2023-03-04T05:54:12;102397.66;;;4.94;74.10
66887;BME280;67239;51.680;5.976;2023-03-04T05:56:39;102394.19;;;4.94;74.47
66887;BME280;67239;51.680;5.976;2023-03-04T05:59:06;102402.94;;;4.96;74.53
66887;BME280;67239;51.680;5.976;2023-03-04T06:01:33;102400.34;;;4.97;74.76
66887;BME280;67239;51.680;5.976;2023-03-04T06:04:01;102409.03;;;4.96;74.87
66887;BME280;67239;51.680;5.976;2023-03-04T06:06:28;102404.66;;;4.94;74.92
66887;BME280;67239;51.680;5.976;2023-03-04T06:08:55;102406.38;;;4.93;75.12
66887;BME280;67239;51.680;5.976;2023-03-04T06:11:22;102408.09;;;4.91;75.23
66887;BME280;67239;51.680;5.976;2023-03-04T06:13:49;102413.31;;;4.91;75.27
66887;BME280;67239;51.680;5.976;2023-03-04T06:16:16;102411.56;;;4.92;75.75
66887;BME280;67239;51.680;5.976;2023-03-04T06:18:43;102408.94;;;4.92;75.88
66887;BME280;67239;51.680;5.976;2023-03-04T06:21:10;102410.69;;;4.91;75.90
66887;BME280;67239;51.680;5.976;2023-03-04T06:23:37;102408.09;;;4.91;76.04
66887;BME280;67239;51.680;5.976;2023-03-04T06:26:04;102419.47;;;4.93;76.11
66887;BME280;67239;51.680;5.976;2023-03-04T06:28:34;102422.91;;;4.92;76.68
66887;BME280;67239;51.680;5.976;2023-03-04T06:31:01;102413.34;;;4.93;76.74
66887;BME280;67239;51.680;5.976;2023-03-04T06:33:29;102416.78;;;4.92;76.76
66887;BME280;67239;51.680;5.976;2023-03-04T06:35:56;102415.09;;;4.94;77.00
66887;BME280;67239;51.680;5.976;2023-03-04T06:38:24;102434.25;;;4.94;77.12
66887;BME280;67239;51.680;5.976;2023-03-04T06:40:52;102427.25;;;4.92;77.24
66887;BME280;67239;51.680;5.976;2023-03-04T06:43:23;102429.78;;;4.89;77.29
66887;BME280;67239;51.680;5.976;2023-03-04T06:45:50;102434.13;;;4.87;77.55
66887;BME280;67239;51.680;5.976;2023-03-04T06:48:17;102426.25;;;4.85;77.78
66887;BME280;67239;51.680;5.976;2023-03-04T06:50:44;102429.63;;;4.79;77.86
66887;BME280;67239;51.680;5.976;2023-03-04T06:53:11;102429.59;;;4.78;78.17
66887;BME280;67239;51.680;5.976;2023-03-04T06:55:40;102433.91;;;4.74;78.45
66887;BME280;67239;51.680;5.976;2023-03-04T06:58:08;102433.06;;;4.77;78.81
66887;BME280;67239;51.680;5.976;2023-03-04T07:00:37;102432.19;;;4.76;78.71
66887;BME280;67239;51.680;5.976;2023-03-04T07:03:05;102431.38;;;4.80;78.87
66887;BME280;67239;51.680;5.976;2023-03-04T07:05:33;102421.88;;;4.84;78.91
66887;BME280;67239;51.680;5.976;2023-03-04T07:08:00;102425.44;;;4.88;78.91
66887;BME280;67239;51.680;5.976;2023-03-04T07:10:27;102432.41;;;4.89;78.91
66887;BME280;67239;51.680;5.976;2023-03-04T07:12:55;102421.16;;;4.91;78.94
66887;BME280;67239;51.680;5.976;2023-03-04T07:15:22;102429.03;;;4.94;78.97
66887;BME280;67239;51.680;5.976;2023-03-04T07:17:49;102433.50;;;5.00;79.06
66887;BME280;67239;51.680;5.976;2023-03-04T07:20:16;102434.44;;;5.04;78.68
66887;BME280;67239;51.680;5.976;2023-03-04T07:22:43;102438.03;;;5.09;78.90
66887;BME280;67239;51.680;5.976;2023-03-04T07:25:10;102433.75;;;5.14;78.83
66887;BME280;67239;51.680;5.976;2023-03-04T07:27:38;102439.94;;;5.18;78.64
66887;BME280;67239;51.680;5.976;2023-03-04T07:30:07;102441.72;;;5.20;78.47
66887;BME280;67239;51.680;5.976;2023-03-04T07:32:34;102449.63;;;5.23;78.42
66887;BME280;67239;51.680;5.976;2023-03-04T07:35:02;102447.03;;;5.26;78.10
66887;BME280;67239;51.680;5.976;2023-03-04T07:37:29;102449.72;;;5.31;78.30
66887;BME280;67239;51.680;5.976;2023-03-04T07:39:56;102449.81;;;5.36;78.25
66887;BME280;67239;51.680;5.976;2023-03-04T07:42:23;102449.94;;;5.42;77.88
66887;BME280;67239;51.680;5.976;2023-03-04T07:44:57;102450.91;;;5.49;77.76
66887;BME280;67239;51.680;5.976;2023-03-04T07:47:27;102450.16;;;5.57;77.76
66887;BME280;67239;51.680;5.976;2023-03-04T07:49:54;102448.63;;;5.69;76.82
66887;BME280;67239;51.680;5.976;2023-03-04T07:52:22;102453.91;;;5.73;76.46
66887;BME280;67239;51.680;5.976;2023-03-04T07:54:49;102453.13;;;5.78;76.25
66887;BME280;67239;51.680;5.976;2023-03-04T07:57:16;102460.97;;;5.79;76.05
66887;BME280;67239;51.680;5.976;2023-03-04T07:59:43;102450.56;;;5.82;76.31
66887;BME280;67239;51.680;5.976;2023-03-04T08:02:10;102461.97;;;5.87;76.31
66887;BME280;67239;51.680;5.976;2023-03-04T08:04:38;102466.56;;;5.99;76.07
66887;BME280;67239;51.680;5.976;2023-03-04T08:07:06;102464.03;;;6.05;76.19
66887;BME280;67239;51.680;5.976;2023-03-04T08:09:33;102464.09;;;6.10;76.09
66887;BME280;67239;51.680;5.976;2023-03-04T08:12:00;102464.09;;;6.12;76.43
66887;BME280;67239;51.680;5.976;2023-03-04T08:14:28;102466.72;;;6.10;76.75
66887;BME280;67239;51.680;5.976;2023-03-04T08:16:54;102468.47;;;6.10;76.75
66887;BME280;67239;51.680;5.976;2023-03-04T08:19:21;102469.34;;;6.12;76.78
66887;BME280;67239;51.680;5.976;2023-03-04T08:21:51;102474.66;;;6.16;77.08
66887;BME280;67239;51.680;5.976;2023-03-04T08:24:19;102471.22;;;6.22;76.79
66887;BME280;67239;51.680;5.976;2023-03-04T08:26:48;102470.41;;;6.25;76.77
66887;BME280;67239;51.680;5.976;2023-03-04T08:29:18;102473.91;;;6.27;76.67
66887;BME280;67239;51.680;5.976;2023-03-04T08:31:48;102482.78;;;6.35;76.39
66887;BME280;67239;51.680;5.976;2023-03-04T08:34:22;102465.38;;;6.39;76.19
66887;BME280;67239;51.680;5.976;2023-03-04T08:36:51;102466.38;;;6.50;75.54
66887;BME280;67239;51.680;5.976;2023-03-04T08:39:19;102464.69;;;6.55;75.95
66887;BME280;67239;51.680;5.976;2023-03-04T08:41:47;102474.44;;;6.67;75.02
66887;BME280;67239;51.680;5.976;2023-03-04T08:44:14;102467.56;;;6.77;74.94
66887;BME280;67239;51.680;5.976;2023-03-04T08:46:42;102470.28;;;6.86;74.91
66887;BME280;67239;51.680;5.976;2023-03-04T08:49:11;102474.78;;;6.95;74.82
66887;BME280;67239;51.680;5.976;2023-03-04T08:51:38;102473.91;;;6.97;74.61
66887;BME280;67239;51.680;5.976;2023-03-04T08:54:05;102482.66;;;6.98;75.13
66887;BME280;67239;51.680;5.976;2023-03-04T08:56:32;102472.09;;;6.92;75.83
66887;BME280;67239;51.680;5.976;2023-03-04T08:58:59;102476.53;;;6.97;75.93
66887;BME280;67239;51.680;5.976;2023-03-04T09:01:26;102474.00;;;7.07;75.94
66887;BME280;67239;51.680;5.976;2023-03-04T09:03:53;102474.09;;;7.16;76.08
66887;BME280;67239;51.680;5.976;2023-03-04T09:06:20;102464.56;;;7.23;75.96
66887;BME280;67239;51.680;5.976;2023-03-04T09:08:47;102462.81;;;7.23;75.52
66887;BME280;67239;51.680;5.976;2023-03-04T09:11:14;102464.59;;;7.27;74.99
66887;BME280;67239;51.680;5.976;2023-03-04T09:13:42;102459.31;;;7.23;75.35
66887;BME280;67239;51.680;5.976;2023-03-04T09:16:13;102456.69;;;7.23;75.54
66887;BME280;67239;51.680;5.976;2023-03-04T09:18:41;102461.06;;;7.25;75.76
66887;BME280;67239;51.680;5.976;2023-03-04T09:21:08;102457.63;;;7.29;74.80
66887;BME280;67239;51.680;5.976;2023-03-04T09:23:37;102453.31;;;7.36;75.19
66887;BME280;67239;51.680;5.976;2023-03-04T09:26:21;102448.97;;;7.41;74.80
66887;BME280;67239;51.680;5.976;2023-03-04T09:28:54;102449.06;;;7.49;74.57
66887;BME280;67239;51.680;5.976;2023-03-04T09:31:24;102446.47;;;7.52;74.74
66887;BME280;67239;51.680;5.976;2023-03-04T09:33:53;102446.47;;;7.55;74.30
66887;BME280;67239;51.680;5.976;2023-03-04T09:36:22;102437.63;;;7.44;74.29
66887;BME280;67239;51.680;5.976;2023-03-04T09:38:49;102448.94;;;7.37;74.62
66887;BME280;67239;51.680;5.976;2023-03-04T09:41:22;102442.81;;;7.36;74.70
66887;BME280;67239;51.680;5.976;2023-03-04T09:43:53;102440.28;;;7.49;74.92
66887;BME280;67239;51.680;5.976;2023-03-04T09:46:33;102439.59;;;7.70;73.83
66887;BME280;67239;51.680;5.976;2023-03-04T09:49:04;102435.22;;;7.73;73.48
66887;BME280;67239;51.680;5.976;2023-03-04T09:54:55;102435.34;;;7.90;73.78
66887;BME280;67239;51.680;5.976;2023-03-04T09:57:51;102432.81;;;8.04;72.99
66887;BME280;67239;51.680;5.976;2023-03-04T10:03:24;102432.69;;;7.89;72.82
66887;BME280;67239;51.680;5.976;2023-03-04T10:06:12;102437.91;;;7.81;72.79
66887;BME280;67239;51.680;5.976;2023-03-04T10:08:51;102438.69;;;7.68;73.36
66887;BME280;67239;51.680;5.976;2023-03-04T10:11:34;102434.25;;;7.57;73.73
66887;BME280;67239;51.680;5.976;2023-03-04T10:17:05;102430.69;;;7.51;74.57
66887;BME280;67239;51.680;5.976;2023-03-04T10:19:52;102434.22;;;7.53;74.74
66887;BME280;67239;51.680;5.976;2023-03-04T10:22:31;102426.44;;;7.68;74.36
66887;BME280;67239;51.680;5.976;2023-03-04T10:25:18;102420.38;;;7.77;73.87
66887;BME280;67239;51.680;5.976;2023-03-04T10:28:01;102424.75;;;7.76;73.71
66887;BME280;67239;51.680;5.976;2023-03-04T10:30:39;102442.19;;;7.68;74.10
66887;BME280;67239;51.680;5.976;2023-03-04T10:33:20;102432.47;;;7.55;75.63
66887;BME280;67239;51.680;5.976;2023-03-04T10:36:02;102449.84;;;7.40;76.85
66887;BME280;67239;51.680;5.976;2023-03-04T10:38:37;102438.44;;;7.35;76.71
66887;BME280;67239;51.680;5.976;2023-03-04T10:41:16;102441.97;;;7.37;77.29
66887;BME280;67239;51.680;5.976;2023-03-04T10:44:01;102435.00;;;7.44;77.31
66887;BME280;67239;51.680;5.976;2023-03-04T10:46:30;102436.81;;;7.51;77.43
66887;BME280;67239;51.680;5.976;2023-03-04T10:48:58;102425.53;;;7.61;77.11
66887;BME280;67239;51.680;5.976;2023-03-04T10:51:27;102421.25;;;7.76;77.38
66887;BME280;67239;51.680;5.976;2023-03-04T10:54:21;102413.47;;;7.95;76.66
66887;BME280;67239;51.680;5.976;2023-03-04T10:56:55;102418.84;;;8.15;76.61
66887;BME280;67239;51.680;5.976;2023-03-04T10:59:28;102410.16;;;8.31;75.59
66887;BME280;67239;51.680;5.976;2023-03-04T11:02:22;102409.34;;;8.38;75.37
66887;BME280;67239;51.680;5.976;2023-03-04T11:07:25;102405.03;;;8.51;74.96
66887;BME280;67239;51.680;5.976;2023-03-04T11:09:53;102412.09;;;8.66;75.08
66887;BME280;67239;51.680;5.976;2023-03-04T11:12:32;102403.34;;;8.80;74.33
66887;BME280;67239;51.680;5.976;2023-03-04T11:15:01;102402.50;;;8.87;74.41
66887;BME280;67239;51.680;5.976;2023-03-04T11:17:42;102397.22;;;8.98;73.16
66887;BME280;67239;51.680;5.976;2023-03-04T11:20:25;102387.59;;;9.01;72.54
66887;BME280;67239;51.680;5.976;2023-03-04T11:23:05;102376.22;;;9.04;72.48
66887;BME280;67239;51.680;5.976;2023-03-04T11:25:43;102379.72;;;9.03;72.24
66887;BME280;67239;51.680;5.976;2023-03-04T11:28:25;102380.56;;;8.90;71.93
66887;BME280;67239;51.680;5.976;2023-03-04T11:31:09;102375.28;;;8.69;72.08
66887;BME280;67239;51.680;5.976;2023-03-04T11:34:02;102378.75;;;8.54;72.08
66887;BME280;67239;51.680;5.976;2023-03-04T11:37:11;102367.34;;;8.48;72.70
66887;BME280;67239;51.680;5.976;2023-03-04T11:39:47;102369.97;;;8.52;72.60
66887;BME280;67239;51.680;5.976;2023-03-04T11:45:15;102371.78;;;8.67;72.01
66887;BME280;67239;51.680;5.976;2023-03-04T11:48:03;102370.88;;;8.67;71.75
66887;BME280;67239;51.680;5.976;2023-03-04T11:50:46;102365.63;;;8.54;72.34
66887;BME280;67239;51.680;5.976;2023-03-04T11:53:41;102364.66;;;8.40;72.80
66887;BME280;67239;51.680;5.976;2023-03-04T11:56:42;102369.84;;;8.23;73.50
66887;BME280;67239;51.680;5.976;2023-03-04T11:59:27;102357.56;;;8.17;74.24
66887;BME280;67239;51.680;5.976;2023-03-04T12:02:22;102352.31;;;8.22;74.48
66887;BME280;67239;51.680;5.976;2023-03-04T12:08:15;102343.63;;;8.42;74.19
66887;BME280;67239;51.680;5.976;2023-03-04T12:11:33;102343.66;;;8.43;74.01
66887;BME280;67239;51.680;5.976;2023-03-04T12:14:25;102332.22;;;8.39;73.82
66887;BME280;67239;51.680;5.976;2023-03-04T12:22:43;102335.63;;;8.09;74.84
66887;BME280;67239;51.680;5.976;2023-03-04T12:25:24;102329.44;;;7.91;75.86
66887;BME280;67239;51.680;5.976;2023-03-04T12:28:34;102329.34;;;7.76;77.23
66887;BME280;67239;51.680;5.976;2023-03-04T12:31:35;102318.84;;;7.71;77.82
66887;BME280;67239;51.680;5.976;2023-03-04T12:34:23;102308.41;;;7.82;77.94
66887;BME280;67239;51.680;5.976;2023-03-04T12:40:27;102305.09;;;8.44;77.66
66887;BME280;67239;51.680;5.976;2023-03-04T12:43:10;102290.25;;;8.69;76.06
66887;BME280;67239;51.680;5.976;2023-03-04T12:48:41;102285.88;;;9.11;74.63
66887;BME280;67239;51.680;5.976;2023-03-04T12:51:28;102280.59;;;9.21;73.92
66887;BME280;67239;51.680;5.976;2023-03-04T12:54:22;102284.13;;;9.26;73.99
66887;BME280;67239;51.680;5.976;2023-03-04T12:57:06;102277.09;;;9.14;73.15
66887;BME280;67239;51.680;5.976;2023-03-04T13:02:43;102271.88;;;8.89;73.01
66887;BME280;67239;51.680;5.976;2023-03-04T13:05:28;102285.00;;;8.78;73.39
66887;BME280;67239;51.680;5.976;2023-03-04T13:14:07;102281.50;;;8.68;74.15
66887;BME280;67239;51.680;5.976;2023-03-04T13:16:56;102265.72;;;8.70;74.12
66887;BME280;67239;51.680;5.976;2023-03-04T13:19:50;102255.22;;;8.82;73.68
66887;BME280;67239;51.680;5.976;2023-03-04T13:25:27;102263.97;;;8.94;73.16
66887;BME280;67239;51.680;5.976;2023-03-04T13:31:06;102242.06;;;8.78;73.44
66887;BME280;67239;51.680;5.976;2023-03-04T13:33:38;102239.44;;;8.70;74.13
66887;BME280;67239;51.680;5.976;2023-03-04T13:36:25;102238.53;;;8.63;73.83
66887;BME280;67239;51.680;5.976;2023-03-04T13:41:53;102238.56;;;8.48;73.31
66887;BME280;67239;51.680;5.976;2023-03-04T13:47:17;102242.03;;;8.37;73.94
66887;BME280;67239;51.680;5.976;2023-03-04T13:49:48;102242.88;;;8.36;73.77
66887;BME280;67239;51.680;5.976;2023-03-04T13:52:39;102237.63;;;8.33;74.05
66887;BME280;67239;51.680;5.976;2023-03-04T13:58:12;102231.50;;;8.23;73.92
66887;BME280;67239;51.680;5.976;2023-03-04T14:00:50;102234.09;;;8.22;73.79
66887;BME280;67239;51.680;5.976;2023-03-04T14:03:25;102239.31;;;8.14;73.62
66887;BME280;67239;51.680;5.976;2023-03-04T14:06:19;102232.34;;;8.08;73.97
66887;BME280;67239;51.680;5.976;2023-03-04T14:08:51;102229.69;;;8.16;73.37
66887;BME280;67239;51.680;5.976;2023-03-04T14:11:36;102238.47;;;8.28;72.73
66887;BME280;67239;51.680;5.976;2023-03-04T14:14:14;102225.38;;;8.38;72.54
66887;BME280;67239;51.680;5.976;2023-03-04T14:16:49;102222.78;;;8.54;71.77